Time;durP1;ratioP1;P1;durP2;ratioP2;P2;SDS_P1;SDS_P2;PMS_P1;PMS_P2;Temp;Humidity;BMP_temperature;BMP_pressure;BME280_temperature;BME280_humidity;BME280_pressure;Samples;Min_cycle;Max_cycle;Signal;HPM_P1;HPM_P2
2021/09/09 00:01:12;;;;;;;18.50;16.70;;;19.10;99.90;;;;;;4944521;29;20240;-67
2021/09/09 00:03:38;;;;;;;17.40;15.80;;;19.00;99.90;;;;;;4938131;29;20188;-66
2021/09/09 00:06:03;;;;;;;18.40;16.70;;;19.10;99.90;;;;;;4950405;29;20665;-67
2021/09/09 00:08:29;;;;;;;18.93;17.27;;;19.00;99.90;;;;;;4954987;29;20181;-66
2021/09/09 00:10:55;;;;;;;21.17;17.77;;;19.00;99.90;;;;;;4956060;29;20263;-66
2021/09/09 00:13:21;;;;;;;19.43;17.63;;;19.00;99.90;;;;;;4956294;29;20729;-66
2021/09/09 00:15:47;;;;;;;19.67;17.87;;;19.00;99.90;;;;;;4944749;29;20598;-66
2021/09/09 00:18:13;;;;;;;20.67;18.70;;;19.00;99.90;;;;;;4936768;29;20186;-66
2021/09/09 00:20:39;;;;;;;20.33;17.93;;;19.00;99.90;;;;;;4937399;29;20464;-66
2021/09/09 00:23:05;;;;;;;20.97;18.90;;;18.90;99.90;;;;;;4918852;29;20461;-66
2021/09/09 00:25:30;;;;;;;22.37;20.03;;;19.00;99.90;;;;;;4937477;29;20486;-66
2021/09/09 00:27:56;;;;;;;22.57;20.20;;;19.00;99.90;;;;;;4936527;29;20261;-66
2021/09/09 00:30:22;;;;;;;22.20;20.07;;;19.00;99.90;;;;;;4938125;29;20226;-66
2021/09/09 00:32:48;;;;;;;22.80;19.90;;;19.00;99.90;;;;;;4955974;29;20177;-66
2021/09/09 00:35:13;;;;;;;21.17;19.17;;;18.90;99.90;;;;;;4948713;29;20193;-66
2021/09/09 00:37:40;;;;;;;22.17;19.93;;;18.90;99.90;;;;;;4937197;29;20489;-66
2021/09/09 00:40:06;;;;;;;21.87;19.60;;;18.90;99.90;;;;;;4936307;29;20221;-67
2021/09/09 00:42:32;;;;;;;21.40;19.17;;;18.90;99.90;;;;;;4936698;29;20465;-66
2021/09/09 00:44:58;;;;;;;21.97;19.77;;;18.90;99.90;;;;;;4940086;29;20531;-67
2021/09/09 00:47:23;;;;;;;20.07;18.10;;;18.90;99.90;;;;;;4955867;29;20180;-66
2021/09/09 00:49:49;;;;;;;21.10;19.10;;;18.80;99.90;;;;;;4955554;29;20174;-66
2021/09/09 00:52:15;;;;;;;20.37;17.80;;;18.90;99.90;;;;;;4955278;29;20239;-66
2021/09/09 00:54:46;;;;;;;21.10;19.13;;;18.90;99.90;;;;;;4955795;28;20177;-66
2021/09/09 00:57:15;;;;;;;20.40;18.43;;;18.90;99.90;;;;;;4947669;29;20432;-66
2021/09/09 00:59:41;;;;;;;20.17;18.10;;;18.80;99.90;;;;;;4936447;29;20410;-67
2021/09/09 01:02:07;;;;;;;20.57;18.53;;;18.80;99.90;;;;;;4950396;29;20563;-66
2021/09/09 01:04:32;;;;;;;20.30;18.40;;;18.80;99.90;;;;;;4948058;29;20178;-66
2021/09/09 01:06:59;;;;;;;20.53;18.43;;;18.80;99.90;;;;;;4935877;29;20185;-66
2021/09/09 01:09:25;;;;;;;20.93;18.83;;;18.70;99.90;;;;;;4936676;29;20225;-66
2021/09/09 01:11:51;;;;;;;19.17;17.47;;;18.70;99.90;;;;;;4938821;29;20425;-67
2021/09/09 01:14:18;;;;;;;20.50;18.50;;;18.70;99.90;;;;;;4938070;29;20422;-66
2021/09/09 01:16:46;;;;;;;20.40;18.40;;;18.70;99.90;;;;;;4936206;29;20417;-67
2021/09/09 01:19:13;;;;;;;20.40;17.57;;;18.60;99.90;;;;;;4935322;29;20815;-66
2021/09/09 01:21:40;;;;;;;18.70;16.90;;;18.60;99.90;;;;;;4936669;29;20465;-66
2021/09/09 01:24:20;;;;;;;19.63;17.60;;;18.60;99.90;;;;;;4935570;29;20450;-66
2021/09/09 01:26:55;;;;;;;20.77;18.70;;;18.60;99.90;;;;;;4935737;29;20440;-66
2021/09/09 01:29:23;;;;;;;24.53;19.10;;;18.50;99.90;;;;;;4935971;29;20764;-66
2021/09/09 01:31:48;;;;;;;19.17;17.43;;;18.50;99.90;;;;;;4948340;29;20444;-66
2021/09/09 01:34:15;;;;;;;19.33;17.53;;;18.50;99.90;;;;;;4953864;28;20417;-66
2021/09/09 01:36:41;;;;;;;21.33;19.27;;;18.40;99.90;;;;;;4955036;29;20263;-66
2021/09/09 01:39:06;;;;;;;19.70;17.90;;;18.40;99.90;;;;;;4954419;29;20455;-66
2021/09/09 01:41:33;;;;;;;21.10;19.00;;;18.40;99.90;;;;;;4937816;29;20948;-66
2021/09/09 01:43:58;;;;;;;17.83;16.13;;;18.40;99.90;;;;;;4944326;29;20209;-67
2021/09/09 01:46:24;;;;;;;20.40;18.37;;;18.40;99.90;;;;;;4935797;29;20910;-66
2021/09/09 01:48:50;;;;;;;20.63;18.53;;;18.40;99.90;;;;;;4935418;29;20221;-66
2021/09/09 01:51:15;;;;;;;19.83;17.93;;;18.40;99.90;;;;;;4935300;29;20182;-66
2021/09/09 01:53:41;;;;;;;19.97;17.97;;;18.40;99.90;;;;;;4935722;29;20182;-66
2021/09/09 01:56:08;;;;;;;21.77;18.57;;;18.40;99.90;;;;;;4947522;29;20184;-66
2021/09/09 01:58:33;;;;;;;19.37;17.67;;;18.40;99.90;;;;;;4954446;29;20268;-66
2021/09/09 02:00:59;;;;;;;20.07;18.07;;;18.40;99.90;;;;;;4953963;29;20979;-66
2021/09/09 02:03:25;;;;;;;18.90;17.00;;;18.40;99.90;;;;;;4954258;28;20205;-66
2021/09/09 02:05:51;;;;;;;20.37;18.27;;;18.40;99.90;;;;;;4953510;29;20220;-66
2021/09/09 02:08:17;;;;;;;19.97;18.07;;;18.50;99.90;;;;;;4954011;29;20405;-66
2021/09/09 02:10:44;;;;;;;18.90;17.23;;;18.40;99.90;;;;;;4954705;29;20881;-66
2021/09/09 02:13:10;;;;;;;20.80;18.77;;;18.40;99.90;;;;;;4953975;29;20475;-66
2021/09/09 02:15:35;;;;;;;21.40;19.40;;;18.40;99.90;;;;;;4937277;29;20421;-66
2021/09/09 02:18:01;;;;;;;21.07;18.83;;;18.40;99.90;;;;;;4935219;29;20492;-66
2021/09/09 02:20:29;;;;;;;20.07;17.97;;;18.30;99.90;;;;;;4935188;29;20304;-66
2021/09/09 02:22:55;;;;;;;21.30;19.40;;;18.40;99.90;;;;;;4935299;29;20217;-66
2021/09/09 02:25:21;;;;;;;21.37;19.30;;;18.40;99.90;;;;;;4934377;29;20583;-66
2021/09/09 02:27:47;;;;;;;20.80;18.87;;;18.30;99.90;;;;;;4953605;29;20429;-66
2021/09/09 02:30:13;;;;;;;20.37;18.30;;;18.40;99.90;;;;;;4953854;29;20400;-67
2021/09/09 02:32:39;;;;;;;19.60;17.80;;;18.40;99.90;;;;;;4954293;29;20504;-67
2021/09/09 02:35:05;;;;;;;21.07;19.00;;;18.30;99.90;;;;;;4953689;29;20497;-67
2021/09/09 02:37:31;;;;;;;20.90;18.83;;;18.30;99.90;;;;;;4953551;29;20420;-67
2021/09/09 02:39:56;;;;;;;19.57;17.63;;;18.30;99.90;;;;;;4935168;29;20426;-66
2021/09/09 02:42:22;;;;;;;20.20;18.17;;;18.30;99.90;;;;;;4934496;29;20209;-66
2021/09/09 02:44:48;;;;;;;20.63;18.43;;;18.30;99.90;;;;;;4935796;29;20256;-66
2021/09/09 02:47:14;;;;;;;20.13;18.30;;;18.20;99.90;;;;;;4938324;29;20225;-66
2021/09/09 02:49:40;;;;;;;19.57;17.53;;;18.20;99.90;;;;;;4942290;29;20420;-66
2021/09/09 02:52:06;;;;;;;21.10;19.10;;;18.20;99.90;;;;;;4957162;28;20193;-66
2021/09/09 02:54:32;;;;;;;19.40;17.53;;;18.20;99.90;;;;;;4957991;29;20596;-66
2021/09/09 02:56:58;;;;;;;21.23;19.23;;;18.10;99.90;;;;;;4957940;29;20436;-66
2021/09/09 02:59:24;;;;;;;19.80;17.97;;;18.10;99.90;;;;;;4957554;29;20408;-66
2021/09/09 03:01:50;;;;;;;20.73;18.83;;;18.00;99.90;;;;;;4952658;29;20449;-66
2021/09/09 03:04:15;;;;;;;20.60;18.60;;;18.00;99.90;;;;;;4938104;29;20240;-66
2021/09/09 03:06:41;;;;;;;20.37;18.33;;;18.00;99.90;;;;;;4938619;29;20312;-66
2021/09/09 03:09:07;;;;;;;21.57;19.57;;;18.00;99.90;;;;;;4938055;29;20178;-66
2021/09/09 03:11:33;;;;;;;20.67;18.63;;;18.00;99.90;;;;;;4938432;29;20329;-66
2021/09/09 03:13:58;;;;;;;21.43;19.37;;;18.00;99.90;;;;;;4938689;29;20429;-66
2021/09/09 03:16:24;;;;;;;22.17;19.93;;;18.00;99.90;;;;;;4937848;29;20653;-66
2021/09/09 03:18:50;;;;;;;21.87;19.90;;;18.00;99.90;;;;;;4938233;29;20244;-66
2021/09/09 03:21:15;;;;;;;23.57;21.00;;;18.00;99.90;;;;;;4937496;29;20180;-66
2021/09/09 03:23:41;;;;;;;21.77;19.57;;;18.00;99.90;;;;;;4938234;29;20217;-66
2021/09/09 03:26:07;;;;;;;21.50;19.30;;;18.00;99.90;;;;;;4940993;29;20173;-66
2021/09/09 03:28:33;;;;;;;21.30;19.10;;;18.00;99.90;;;;;;4957371;29;20492;-66
2021/09/09 03:30:58;;;;;;;21.87;19.87;;;18.00;99.90;;;;;;4957216;29;20232;-66
2021/09/09 03:33:24;;;;;;;20.93;18.73;;;18.00;99.90;;;;;;4956751;29;20177;-66
2021/09/09 03:35:50;;;;;;;20.60;18.47;;;18.00;99.90;;;;;;4957216;29;20177;-66
2021/09/09 03:38:16;;;;;;;21.60;19.40;;;18.00;99.90;;;;;;4949196;29;20185;-65
2021/09/09 03:40:42;;;;;;;21.20;19.20;;;18.00;99.90;;;;;;4937902;29;20418;-66
2021/09/09 03:43:07;;;;;;;21.87;19.77;;;18.00;99.90;;;;;;4936875;29;20257;-65
2021/09/09 03:45:33;;;;;;;23.13;20.83;;;18.00;99.90;;;;;;4937931;29;20578;-65
2021/09/09 03:47:59;;;;;;;22.87;20.47;;;18.00;99.90;;;;;;4937852;29;20180;-66
2021/09/09 03:50:25;;;;;;;21.40;19.30;;;18.00;99.90;;;;;;4945525;29;20189;-65
2021/09/09 03:52:50;;;;;;;23.03;20.10;;;18.00;99.90;;;;;;4956966;29;20265;-66
2021/09/09 03:55:16;;;;;;;21.87;19.53;;;18.00;99.90;;;;;;4956359;29;20413;-65
2021/09/09 03:57:42;;;;;;;21.83;19.60;;;17.90;99.90;;;;;;4938640;29;20304;-66
2021/09/09 04:00:08;;;;;;;20.40;18.40;;;18.00;99.90;;;;;;4956163;28;20180;-66
2021/09/09 04:02:34;;;;;;;20.50;18.40;;;18.00;99.90;;;;;;4929012;29;20217;-66
2021/09/09 04:05:02;;;;;;;21.03;18.73;;;18.00;99.90;;;;;;4937294;29;20409;-66
2021/09/09 04:07:27;;;;;;;20.50;17.50;;;17.90;99.90;;;;;;4936662;29;20779;-65
2021/09/09 04:09:53;;;;;;;22.43;20.00;;;17.90;99.90;;;;;;4937432;29;20412;-66
2021/09/09 04:12:19;;;;;;;21.50;19.40;;;17.90;99.90;;;;;;4936845;29;20418;-66
2021/09/09 04:14:45;;;;;;;21.90;19.70;;;17.90;99.90;;;;;;4950706;29;20240;-65
2021/09/09 04:17:10;;;;;;;22.57;20.03;;;17.80;99.90;;;;;;4955930;29;20184;-66
2021/09/09 04:19:36;;;;;;;22.63;20.27;;;17.80;99.90;;;;;;4956012;29;20248;-65
2021/09/09 04:22:06;;;;;;;24.47;21.87;;;17.70;99.90;;;;;;4956329;29;20217;-66
2021/09/09 04:24:33;;;;;;;23.57;21.10;;;17.70;99.90;;;;;;4956405;29;20177;-65
2021/09/09 04:26:59;;;;;;;21.90;19.17;;;17.70;99.90;;;;;;4939362;29;20513;-65
2021/09/09 04:29:25;;;;;;;22.50;20.30;;;17.70;99.90;;;;;;4936594;29;20492;-66
2021/09/09 04:31:51;;;;;;;23.43;20.93;;;17.70;99.90;;;;;;4949864;29;20189;-65
2021/09/09 04:34:17;;;;;;;22.73;20.43;;;17.60;99.90;;;;;;4955563;29;20428;-65
2021/09/09 04:36:42;;;;;;;21.80;19.70;;;17.60;99.90;;;;;;4955693;29;20256;-66
2021/09/09 04:39:08;;;;;;;21.00;18.90;;;17.60;99.90;;;;;;4936613;29;20266;-66
2021/09/09 04:41:34;;;;;;;22.37;19.97;;;17.60;99.90;;;;;;4936872;29;20177;-65
2021/09/09 04:44:00;;;;;;;23.77;21.43;;;17.60;99.90;;;;;;4936516;29;20174;-65
2021/09/09 04:46:25;;;;;;;22.80;20.47;;;17.50;99.90;;;;;;4936168;29;20222;-65
2021/09/09 04:48:51;;;;;;;23.30;20.77;;;17.50;99.90;;;;;;4937695;29;20258;-66
2021/09/09 04:51:17;;;;;;;21.53;19.53;;;17.50;99.90;;;;;;4954889;29;20173;-66
2021/09/09 04:53:42;;;;;;;22.50;19.00;;;17.50;99.90;;;;;;4938714;29;20535;-65
2021/09/09 04:56:08;;;;;;;21.93;19.73;;;17.50;99.90;;;;;;4955444;28;20173;-71
2021/09/09 04:58:34;;;;;;;22.73;19.70;;;17.50;99.90;;;;;;4955676;29;20173;-65
2021/09/09 05:00:59;;;;;;;20.33;18.53;;;17.50;99.90;;;;;;4951059;29;20181;-65
2021/09/09 05:03:25;;;;;;;21.23;19.07;;;17.50;99.90;;;;;;4935853;29;20219;-66
2021/09/09 05:05:51;;;;;;;22.40;20.10;;;17.50;99.90;;;;;;4936510;29;20265;-66
2021/09/09 05:08:17;;;;;;;20.90;18.70;;;17.50;99.90;;;;;;4935497;29;20185;-65
2021/09/09 05:10:42;;;;;;;22.20;19.97;;;17.50;99.90;;;;;;4936391;29;20177;-66
2021/09/09 05:13:08;;;;;;;20.50;18.50;;;17.50;99.90;;;;;;4941025;29;20173;-67
2021/09/09 05:15:34;;;;;;;22.93;20.43;;;17.40;99.90;;;;;;4955163;29;20716;-66
2021/09/09 05:18:00;;;;;;;22.80;18.90;;;17.40;99.90;;;;;;4955360;29;20397;-66
2021/09/09 05:20:26;;;;;;;22.57;20.27;;;17.40;99.90;;;;;;4954617;29;20233;-66
2021/09/09 05:22:51;;;;;;;20.80;18.80;;;17.40;99.90;;;;;;4955332;29;20244;-66
2021/09/09 05:25:17;;;;;;;22.00;19.70;;;17.40;99.90;;;;;;4954151;28;20268;-67
2021/09/09 05:27:43;;;;;;;23.70;19.70;;;17.40;99.90;;;;;;4955182;29;20232;-66
2021/09/09 05:30:10;;;;;;;21.67;18.93;;;17.40;99.90;;;;;;4955180;29;20412;-66
2021/09/09 05:32:36;;;;;;;21.40;19.20;;;17.40;99.90;;;;;;4954959;29;20432;-66
2021/09/09 05:35:02;;;;;;;23.07;20.63;;;17.40;99.90;;;;;;4955039;29;20431;-65
2021/09/09 05:37:28;;;;;;;25.13;21.10;;;17.50;99.90;;;;;;4944902;29;20418;-66
2021/09/09 05:39:54;;;;;;;23.63;21.13;;;17.50;99.90;;;;;;4935807;29;20472;-65
2021/09/09 05:42:19;;;;;;;25.47;20.87;;;17.50;99.90;;;;;;4934530;29;20202;-66
2021/09/09 05:44:45;;;;;;;24.33;21.73;;;17.50;99.90;;;;;;4935340;29;20186;-66
2021/09/09 05:47:11;;;;;;;24.37;21.77;;;17.60;99.90;;;;;;4935245;29;20182;-68
2021/09/09 05:49:43;;;;;;;23.50;21.00;;;17.60;99.90;;;;;;4936915;29;20228;-65
2021/09/09 05:52:09;;;;;;;24.33;21.60;;;17.60;99.90;;;;;;4937527;29;20521;-65
2021/09/09 05:54:35;;;;;;;26.73;21.73;;;17.60;99.90;;;;;;4948327;29;20408;-65
2021/09/09 05:57:02;;;;;;;23.90;21.40;;;17.60;99.90;;;;;;4941651;29;20425;-66
2021/09/09 05:59:28;;;;;;;23.30;20.80;;;17.70;99.90;;;;;;4948132;29;20487;-66
2021/09/09 06:01:54;;;;;;;29.53;21.90;;;17.70;99.90;;;;;;4953828;28;20498;-66
2021/09/09 06:04:22;;;;;;;24.97;20.57;;;17.70;99.90;;;;;;4951994;29;20428;-67
2021/09/09 06:06:49;;;;;;;27.80;20.57;;;17.90;99.90;;;;;;4941340;29;20418;-67
2021/09/09 06:09:15;;;;;;;23.50;20.50;;;18.10;99.90;;;;;;4935979;29;20413;-66
2021/09/09 06:11:41;;;;;;;22.27;20.07;;;18.30;99.90;;;;;;4954555;29;20425;-66
2021/09/09 06:14:08;;;;;;;23.57;20.10;;;18.60;99.90;;;;;;4954637;29;20424;-66
2021/09/09 06:16:34;;;;;;;18.70;16.80;;;18.70;99.90;;;;;;4953995;29;20538;-67
2021/09/09 06:18:59;;;;;;;20.40;18.30;;;18.90;99.90;;;;;;4950623;29;20882;-67
2021/09/09 06:21:25;;;;;;;20.87;18.67;;;19.20;99.90;;;;;;4936381;29;20533;-68
2021/09/09 06:23:51;;;;;;;20.33;18.33;;;19.50;99.90;;;;;;4936934;29;20997;-68
2021/09/09 06:26:18;;;;;;;22.90;19.70;;;19.80;99.90;;;;;;4952081;29;20178;-68
2021/09/09 06:28:44;;;;;;;21.27;18.97;;;19.90;99.90;;;;;;4943523;29;20285;-65
2021/09/09 06:31:10;;;;;;;20.33;16.30;;;20.00;99.90;;;;;;4954035;29;20456;-65
2021/09/09 06:33:35;;;;;;;17.00;15.30;;;20.20;99.90;;;;;;4953348;28;20460;-72
2021/09/09 06:36:01;;;;;;;20.73;15.93;;;20.40;99.90;;;;;;4954586;29;20610;-66
2021/09/09 06:38:27;;;;;;;20.93;17.63;;;20.60;99.90;;;;;;4953493;29;20185;-66
2021/09/09 06:40:53;;;;;;;19.70;17.70;;;20.80;99.90;;;;;;4948655;29;20232;-66
2021/09/09 06:43:18;;;;;;;17.77;16.07;;;20.90;99.90;;;;;;4946856;28;20221;-66
2021/09/09 06:45:44;;;;;;;17.53;15.73;;;21.10;99.90;;;;;;4943606;29;20701;-66
2021/09/09 06:48:10;;;;;;;17.57;15.97;;;21.30;99.90;;;;;;4950087;29;20212;-66
2021/09/09 06:50:35;;;;;;;19.00;16.20;;;21.30;99.90;;;;;;4949929;29;20173;-66
2021/09/09 06:53:02;;;;;;;19.37;17.53;;;21.50;99.90;;;;;;4953315;29;20181;-66
2021/09/09 06:55:27;;;;;;;17.43;15.60;;;21.60;99.90;;;;;;4946176;28;20182;-66
2021/09/09 06:57:53;;;;;;;18.60;16.80;;;21.70;99.60;;;;;;4943331;29;20787;-65
2021/09/09 07:00:19;;;;;;;17.77;16.07;;;21.80;99.40;;;;;;4952047;29;20185;-66
2021/09/09 07:02:45;;;;;;;17.73;16.13;;;21.80;99.30;;;;;;4953489;29;20219;-67
2021/09/09 07:05:11;;;;;;;18.77;17.07;;;21.90;99.20;;;;;;4953307;29;20435;-66
2021/09/09 07:07:40;;;;;;;19.77;17.97;;;21.90;99.20;;;;;;4952677;29;20181;-66
2021/09/09 07:10:07;;;;;;;18.13;16.37;;;22.00;99.00;;;;;;4953879;29;20443;-66
2021/09/09 07:12:33;;;;;;;18.70;17.00;;;22.10;99.00;;;;;;4952586;29;20456;-66
2021/09/09 07:14:58;;;;;;;18.67;16.97;;;22.10;98.90;;;;;;4953425;29;20945;-66
2021/09/09 07:17:25;;;;;;;19.10;17.20;;;22.10;98.80;;;;;;4952916;29;20276;-66
2021/09/09 07:19:50;;;;;;;19.07;17.37;;;22.20;98.70;;;;;;4953019;29;20723;-66
2021/09/09 07:22:16;;;;;;;17.97;16.07;;;22.20;98.70;;;;;;4952641;29;20468;-73
2021/09/09 07:24:42;;;;;;;54.47;19.37;;;22.30;98.50;;;;;;4953554;29;20181;-66
2021/09/09 07:27:08;;;;;;;18.53;16.37;;;22.30;98.40;;;;;;4951830;29;20177;-66
2021/09/09 07:29:34;;;;;;;20.10;18.10;;;22.30;98.10;;;;;;4952231;29;20209;-66
2021/09/09 07:32:00;;;;;;;19.90;17.73;;;22.40;97.90;;;;;;4953845;28;20460;-66
2021/09/09 07:34:26;;;;;;;18.87;16.97;;;22.40;97.70;;;;;;4956314;29;20193;-66
2021/09/09 07:36:53;;;;;;;22.23;20.03;;;22.40;97.70;;;;;;4957200;29;20633;-66
2021/09/09 07:39:19;;;;;;;23.40;17.67;;;22.50;97.60;;;;;;4956337;29;20421;-66
2021/09/09 07:41:46;;;;;;;19.43;17.37;;;22.40;97.40;;;;;;4951467;28;20428;-66
2021/09/09 07:44:11;;;;;;;20.43;18.57;;;22.50;97.40;;;;;;4951146;29;20429;-66
2021/09/09 07:46:38;;;;;;;20.63;18.73;;;22.50;97.40;;;;;;4951843;29;20807;-68
2021/09/09 07:49:03;;;;;;;23.00;19.30;;;22.50;97.40;;;;;;4950058;29;20535;-66
2021/09/09 07:51:29;;;;;;;21.03;19.07;;;22.50;97.10;;;;;;4947658;29;20433;-65
2021/09/09 07:53:55;;;;;;;20.90;18.70;;;22.50;96.50;;;;;;4950262;29;20236;-65
2021/09/09 07:56:21;;;;;;;22.80;20.53;;;22.40;96.90;;;;;;4951826;29;20177;-65
2021/09/09 07:58:49;;;;;;;21.10;18.90;;;22.40;97.30;;;;;;4954266;29;20421;-65
2021/09/09 08:01:21;;;;;;;22.10;19.80;;;22.30;97.50;;;;;;4950564;29;20449;-65
2021/09/09 08:03:48;;;;;;;21.20;19.20;;;22.30;97.60;;;;;;4950747;29;20460;-64
2021/09/09 08:06:14;;;;;;;21.60;19.67;;;22.30;98.10;;;;;;4948956;29;20445;-65
2021/09/09 08:08:40;;;;;;;22.03;20.07;;;22.20;98.90;;;;;;4946561;29;21109;-65
2021/09/09 08:11:06;;;;;;;20.50;18.50;;;22.20;98.90;;;;;;4951291;29;20432;-64
2021/09/09 08:13:34;;;;;;;21.07;18.70;;;22.20;98.90;;;;;;4954427;29;20787;-67
2021/09/09 08:16:00;;;;;;;19.80;17.80;;;22.20;98.70;;;;;;4940524;29;20448;-65
2021/09/09 08:18:25;;;;;;;18.47;16.47;;;22.20;98.60;;;;;;4938753;29;20476;-65
2021/09/09 08:20:54;;;;;;;18.10;16.40;;;22.20;99.00;;;;;;4939252;29;20942;-64
2021/09/09 08:23:20;;;;;;;17.50;15.63;;;22.20;98.70;;;;;;4955345;29;20212;-66
2021/09/09 08:25:46;;;;;;;13.60;12.40;;;22.30;99.90;;;;;;4955678;29;20459;-66
2021/09/09 08:28:12;;;;;;;12.97;11.73;;;22.30;99.90;;;;;;4938202;29;20515;-66
2021/09/09 08:30:37;;;;;;;12.87;11.77;;;22.30;99.20;;;;;;4952974;28;20264;-66
2021/09/09 08:33:03;;;;;;;12.13;10.93;;;22.40;98.20;;;;;;4945087;29;20177;-65
2021/09/09 08:35:29;;;;;;;12.77;11.73;;;22.50;97.80;;;;;;4945949;29;20200;-65
2021/09/09 08:37:55;;;;;;;12.43;11.13;;;22.50;97.50;;;;;;4955954;29;20189;-65
2021/09/09 08:40:22;;;;;;;14.20;12.80;;;22.50;96.90;;;;;;4955271;29;20629;-67
2021/09/09 08:42:48;;;;;;;16.13;14.47;;;22.70;98.40;;;;;;4954981;28;20456;-66
2021/09/09 08:45:15;;;;;;;16.07;14.57;;;22.70;98.90;;;;;;4953330;29;20417;-66
2021/09/09 08:47:42;;;;;;;14.37;13.00;;;22.80;98.90;;;;;;4946912;29;20496;-66
2021/09/09 08:50:10;;;;;;;17.17;13.03;;;22.80;99.00;;;;;;4949741;29;20428;-65
2021/09/09 08:52:39;;;;;;;15.17;13.83;;;22.90;99.30;;;;;;4951056;28;20823;-65
2021/09/09 08:55:05;;;;;;;15.40;14.10;;;23.00;99.10;;;;;;4953637;29;20457;-65
2021/09/09 08:57:32;;;;;;;15.70;14.20;;;23.10;99.60;;;;;;4941850;29;20430;-66
2021/09/09 09:00:02;;;;;;;19.90;13.90;;;23.20;98.80;;;;;;4953048;29;20413;-65
2021/09/09 09:02:28;;;;;;;13.57;12.20;;;23.30;98.50;;;;;;4950930;29;20547;-65
2021/09/09 09:08:55;;;;;;;14.10;12.80;;;23.40;97.80;;;;;;4936734;29;20213;-65
2021/09/09 09:11:22;;;;;;;14.90;13.53;;;23.50;98.00;;;;;;4940518;29;20772;-66
2021/09/09 09:13:49;;;;;;;13.97;12.73;;;23.60;97.80;;;;;;4948835;29;20504;-65
2021/09/09 09:16:15;;;;;;;13.87;12.53;;;23.80;98.00;;;;;;4945718;29;20417;-66
2021/09/09 09:18:45;;;;;;;14.97;13.43;;;23.90;98.00;;;;;;4951420;29;20793;-66
2021/09/09 09:21:11;;;;;;;14.87;12.93;;;24.00;98.50;;;;;;4940272;29;20436;-65
2021/09/09 09:23:45;;;;;;;13.27;12.00;;;24.20;97.60;;;;;;4954221;29;20511;-65
2021/09/09 09:26:12;;;;;;;14.17;12.87;;;24.40;97.80;;;;;;4952256;29;20408;-66
2021/09/09 09:28:45;;;;;;;13.70;12.60;;;24.70;97.10;;;;;;4944554;28;20408;-66
2021/09/09 09:31:19;;;;;;;13.10;12.10;;;24.80;96.90;;;;;;4954203;29;20445;-65
2021/09/09 09:34:07;;;;;;;15.23;13.63;;;25.10;96.80;;;;;;4934326;29;20418;-65
2021/09/09 09:36:38;;;;;;;14.07;12.53;;;25.30;95.80;;;;;;4945168;29;20429;-66
2021/09/09 09:39:09;;;;;;;13.37;12.33;;;25.60;95.90;;;;;;4954560;29;20421;-65
2021/09/09 09:41:37;;;;;;;12.40;11.30;;;25.80;95.60;;;;;;4945384;29;20803;-65
2021/09/09 09:44:06;;;;;;;11.90;10.77;;;26.00;95.80;;;;;;4951301;29;20429;-66
2021/09/09 09:46:40;;;;;;;11.70;10.60;;;26.20;93.50;;;;;;4947018;29;20495;-66
2021/09/09 09:49:29;;;;;;;11.00;10.00;;;26.30;91.90;;;;;;4939147;29;20457;-66
2021/09/09 09:52:00;;;;;;;13.10;12.00;;;26.50;92.10;;;;;;4918876;29;21000;-66
2021/09/09 09:54:27;;;;;;;13.87;12.67;;;26.70;91.80;;;;;;4943997;28;20507;-66
2021/09/09 09:56:55;;;;;;;11.37;10.53;;;26.90;91.40;;;;;;4954821;29;20420;-63
2021/09/09 09:59:21;;;;;;;11.87;10.70;;;27.10;90.80;;;;;;4954760;29;20401;-66
2021/09/09 10:01:48;;;;;;;12.30;11.33;;;27.30;91.70;;;;;;4949107;29;20920;-66
2021/09/09 10:04:17;;;;;;;11.87;10.77;;;27.50;90.70;;;;;;4933561;29;20904;-66
2021/09/09 10:06:44;;;;;;;11.50;10.70;;;27.70;89.70;;;;;;4945685;29;20417;-66
2021/09/09 10:09:11;;;;;;;13.37;12.27;;;27.90;86.10;;;;;;4953627;28;20432;-65
2021/09/09 10:11:37;;;;;;;10.63;9.83;;;28.10;88.10;;;;;;4946240;29;20433;-65
2021/09/09 10:14:04;;;;;;;12.57;11.60;;;28.30;88.20;;;;;;4943910;29;20414;-65
2021/09/09 10:16:35;;;;;;;11.70;10.87;;;28.50;89.10;;;;;;4939647;29;20219;-65
2021/09/09 10:19:00;;;;;;;11.23;10.30;;;28.60;83.70;;;;;;4944763;28;20504;-65
2021/09/09 10:21:41;;;;;;;11.20;10.30;;;28.50;81.90;;;;;;4943664;29;20421;-66
2021/09/09 10:24:20;;;;;;;12.60;11.80;;;28.60;86.00;;;;;;4944282;29;20727;-65
2021/09/09 10:26:48;;;;;;;10.40;9.50;;;28.70;85.60;;;;;;4944418;29;20427;-65
2021/09/09 10:29:41;;;;;;;14.20;13.20;;;28.90;84.70;;;;;;4941654;29;20773;-65
2021/09/09 10:32:08;;;;;;;13.17;12.27;;;29.10;82.70;;;;;;4952049;29;20428;-65
2021/09/09 10:34:33;;;;;;;11.50;9.67;;;29.20;81.80;;;;;;4949825;29;20422;-65
2021/09/09 10:36:59;;;;;;;9.97;9.17;;;29.30;80.50;;;;;;4944943;29;20765;-66
2021/09/09 10:39:34;;;;;;;12.37;11.27;;;29.40;80.60;;;;;;4941961;29;20256;-65
2021/09/09 10:42:20;;;;;;;11.70;10.90;;;29.60;81.00;;;;;;4943204;29;20713;-64
2021/09/09 10:44:49;;;;;;;11.30;10.40;;;29.80;80.90;;;;;;4927804;29;20444;-65
2021/09/09 10:47:19;;;;;;;11.60;10.70;;;29.90;81.00;;;;;;4925238;29;20431;-65
2021/09/09 10:49:45;;;;;;;14.87;13.57;;;30.00;79.40;;;;;;4926229;29;20428;-65
2021/09/09 10:52:12;;;;;;;11.30;10.20;;;30.20;77.00;;;;;;4945555;29;20500;-65
2021/09/09 10:55:05;;;;;;;14.67;13.67;;;30.20;79.00;;;;;;4944183;29;20182;-64
2021/09/09 10:57:31;;;;;;;13.47;12.47;;;30.10;74.90;;;;;;4944014;29;20421;-65
2021/09/09 10:59:57;;;;;;;11.17;10.37;;;30.10;74.20;;;;;;4939445;29;20818;-65
2021/09/09 11:02:23;;;;;;;13.33;12.33;;;30.00;74.20;;;;;;4942024;29;20460;-69
2021/09/09 11:04:49;;;;;;;12.60;11.60;;;30.10;76.90;;;;;;4944341;29;20185;-65
2021/09/09 11:07:26;;;;;;;13.10;12.30;;;30.20;75.10;;;;;;4948688;29;20472;-64
2021/09/09 11:10:05;;;;;;;10.97;9.80;;;30.10;75.50;;;;;;4949070;29;20192;-64
2021/09/09 11:12:39;;;;;;;11.50;10.63;;;30.20;75.90;;;;;;4927673;29;20850;-64
2021/09/09 11:15:09;;;;;;;11.60;10.80;;;30.30;75.20;;;;;;4938706;29;20397;-64
2021/09/09 11:17:35;;;;;;;13.67;12.50;;;30.40;72.30;;;;;;4944583;29;20420;-64
2021/09/09 11:20:04;;;;;;;14.20;13.20;;;30.30;74.80;;;;;;4948635;29;20460;-64
2021/09/09 11:22:31;;;;;;;13.23;12.23;;;30.30;76.70;;;;;;4945240;29;20476;-65
2021/09/09 11:24:58;;;;;;;12.10;11.30;;;30.30;76.30;;;;;;4946436;28;20428;-65
2021/09/09 11:27:29;;;;;;;11.53;10.73;;;30.40;74.50;;;;;;4946461;29;20432;-71
2021/09/09 11:29:56;;;;;;;11.83;10.73;;;30.60;75.50;;;;;;4944740;29;20398;-65
2021/09/09 11:32:22;;;;;;;11.13;10.13;;;30.70;73.90;;;;;;4954877;29;20432;-66
2021/09/09 11:34:48;;;;;;;12.73;11.80;;;30.80;75.80;;;;;;4956609;29;20424;-66
2021/09/09 11:37:14;;;;;;;11.40;10.60;;;30.90;74.40;;;;;;4957033;29;20413;-66
2021/09/09 11:39:40;;;;;;;11.63;10.73;;;30.80;73.50;;;;;;4956353;29;20223;-66
2021/09/09 11:42:06;;;;;;;11.77;10.93;;;30.80;74.00;;;;;;4956004;29;20263;-66
2021/09/09 11:44:41;;;;;;;12.53;11.47;;;30.80;73.80;;;;;;4955632;29;20193;-66
2021/09/09 11:47:13;;;;;;;11.90;11.10;;;30.80;74.60;;;;;;4956547;29;20759;-66
2021/09/09 11:49:39;;;;;;;12.03;10.80;;;30.80;76.00;;;;;;4956274;29;20496;-66
2021/09/09 11:52:05;;;;;;;15.33;14.20;;;30.90;74.10;;;;;;4956778;29;20606;-65
2021/09/09 11:54:33;;;;;;;14.93;14.00;;;30.90;74.20;;;;;;4955394;29;20479;-66
2021/09/09 11:57:04;;;;;;;12.20;11.20;;;30.90;73.00;;;;;;4956521;29;20420;-66
2021/09/09 11:59:30;;;;;;;11.53;10.67;;;30.80;73.50;;;;;;4955593;29;20440;-66
2021/09/09 12:02:06;;;;;;;14.93;13.67;;;30.80;74.70;;;;;;4955981;29;20522;-67
2021/09/09 12:04:39;;;;;;;14.70;13.80;;;30.70;75.10;;;;;;4967579;28;20422;-66
2021/09/09 12:07:07;;;;;;;10.57;9.60;;;30.80;74.90;;;;;;4964837;28;20423;-65
2021/09/09 12:09:37;;;;;;;12.40;11.47;;;30.70;73.20;;;;;;4955687;29;20785;-66
2021/09/09 12:12:09;;;;;;;12.73;11.80;;;30.70;74.10;;;;;;4956313;29;20733;-66
2021/09/09 12:14:40;;;;;;;13.43;12.53;;;30.70;73.80;;;;;;4955848;29;20416;-66
2021/09/09 12:17:11;;;;;;;13.03;12.13;;;30.70;74.20;;;;;;4955553;28;20544;-65
2021/09/09 12:20:07;;;;;;;15.00;14.10;;;30.60;74.50;;;;;;4955256;29;20471;-65
2021/09/09 12:22:49;;;;;;;14.37;13.47;;;30.50;73.50;;;;;;4954860;29;20468;-66
2021/09/09 12:25:20;;;;;;;15.67;14.57;;;30.50;73.90;;;;;;4956247;29;20405;-71
2021/09/09 12:28:14;;;;;;;11.90;11.10;;;30.40;74.60;;;;;;4955431;29;20421;-65
2021/09/09 12:30:51;;;;;;;13.63;11.30;;;30.30;74.40;;;;;;4955183;29;20841;-65
2021/09/09 12:33:26;;;;;;;12.67;11.57;;;30.30;76.50;;;;;;4955655;29;20425;-65